Aeroporto :
LOGIN :

Iscrizione | Disclaimer

   EN    FR    IT 

 










Sommario :    VFR   VFR Marginale   IFR   IFR Intensivo   IFR Molto Intensivo
Visibilità : 
Base nubi : 
>= 8 km
>= 3000ft
5 / 8 km
1000 / 3000 ft
1500m / 5 km
500 / 1000 ft
800 / 1500m
200 / 500 ft
< 800m
< 200 ft
Simboli :   Temporali  Nebbia  Neve Forte  Precipitazioni Forti  Vento > 20 kt
SIGMETs :   Varie  Temporali  Ghiacco  Turbolenza  Onda orograficha  Ceneri Vulcaniche







- Altitudine del aeroporto : 0 ft


ETEB - Ansbach Army Heliport

ULTIMO METAR :
  • 182256Z AUTO 29007G16KT 9999 +RA SCT045 OVC065 17/14 A3001 RMK AO2 RAB39 SLP156 P0005 T01720141 402670117 $

METARs OBSOLETI :
  • 182239Z AUTO 29012G18KT 9999 -RA BKN070 OVC090 19/10 A3000 RMK AO2 RAB39 SLP151 $
  • 182156Z AUTO 00000KT 9999 SCT075 SCT110 19/09 A2997 RMK AO2 SLP142 T01880093 $
  • 182056Z AUTO 00000KT 9999 BKN085 BKN150 20/09 A2997 RMK AO2 SLP141 T02010090 52011 $

TAF TAF ETEB
Valido dal 18 a 21 ore il 20 a 03 ore UTC


182103Z 1821/2003 26006KT 9999 BKN060 QNH2994INS
BECMG 1909/1910 28009KT 9000 -SHRA SCT040 BKN050 QNH2999INS
BECMG 1918/1919 VRB06KT 9999 NSW BKN055 QNH3000INS TX27/1914Z TN11/1904Z
Nessun NOTAM noto per questo aeroporto.



MetMap, La meteo Aeronautica in un colpo d'occhio ! - Copyright ORBIFLY Dicembre 2007 - Disclaimer

ORBIFLY MET'MAP TEAM :

Programmazione e sviluppo : Alexandra Zaïnal
Concezione e sviluppo : Baudouin d'Aumeries
Co-Programmazione e sviluppo : Marc-Olivier Méhu
Supporto tecnico e logistico : Manuel Goepfert
Aiuto per la traduzione : Arnaldo La Scala

Contatto : metmap@orbifly.com




FONTI E CREDITI :

   NOAA